Terminal Aerodrome Forecast
Issued by NWS

Home | Current Version | Previous Version | Text Only | Print | Product List | Glossary On
Versions: 1 2 3 4 5 6 7 8 9 10 11 12 13 14 15 16 17 18 19 20 21 22 23 24 25 26 27 28 29 30 31
319
FTAK31 PANC 082339
TAFADU
TAF
PADU 082339Z 0900/0924 VRB05KT P6SM FEW100
     FM090900 09012G22KT 6SM -RA SCT025 BKN035
     FM091200 08018G28KT 4SM -RA OVC015=

USA.gov is the U.S. government's official web portal to all federal, state and local government web resources and services.